Terminal Aerodrome Forecast
Issued by NWS Sterling, VA

Current Version | Previous Version | Text Only | Print | Product List | Glossary Off
Versions: 1 2 3 4 5 6 7 8 9 10 11 12 13 14 15

202
FTUS41 KLWX 151120
TAFMRB
TAF
KMRB 151120Z 1512/1612 00000KT P6SM FEW200
     FM151900 15006KT P6SM SCT040 BKN200
     FM160300 17004KT P6SM VCSH BKN040 OVC150
     FM160700 VRB03KT P6SM SCT040=

USA.gov is the U.S. government's official web portal to all federal, state and local government web resources and services.